sensor_id;sensor_type;location;lat;lon;timestamp;P1;durP1;ratioP1;P2;durP2;ratioP2
9102;SDS011;4587;51.434;6.788;2023-06-04T00:00:37;3.20;;;1.60;;
9102;SDS011;4587;51.434;6.788;2023-06-04T00:03:03;4.10;;;2.00;;
9102;SDS011;4587;51.434;6.788;2023-06-04T00:05:28;2.20;;;1.70;;
9102;SDS011;4587;51.434;6.788;2023-06-04T00:07:54;2.60;;;1.70;;
9102;SDS011;4587;51.434;6.788;2023-06-04T00:10:19;5.13;;;1.70;;
9102;SDS011;4587;51.434;6.788;2023-06-04T00:12:45;2.47;;;1.83;;
9102;SDS011;4587;51.434;6.788;2023-06-04T00:15:11;3.63;;;1.77;;
9102;SDS011;4587;51.434;6.788;2023-06-04T00:17:39;3.17;;;1.77;;
9102;SDS011;4587;51.434;6.788;2023-06-04T00:20:05;3.17;;;1.60;;
9102;SDS011;4587;51.434;6.788;2023-06-04T00:22:31;3.10;;;1.77;;
9102;SDS011;4587;51.434;6.788;2023-06-04T00:24:57;2.47;;;1.60;;
9102;SDS011;4587;51.434;6.788;2023-06-04T00:27:22;3.53;;;1.43;;
9102;SDS011;4587;51.434;6.788;2023-06-04T00:29:48;1.70;;;1.50;;
9102;SDS011;4587;51.434;6.788;2023-06-04T00:32:13;2.50;;;1.70;;
9102;SDS011;4587;51.434;6.788;2023-06-04T00:34:39;2.17;;;1.50;;
9102;SDS011;4587;51.434;6.788;2023-06-04T00:37:05;2.50;;;1.33;;
9102;SDS011;4587;51.434;6.788;2023-06-04T00:39:30;1.50;;;1.37;;
9102;SDS011;4587;51.434;6.788;2023-06-04T00:41:56;3.63;;;1.73;;
9102;SDS011;4587;51.434;6.788;2023-06-04T00:44:22;2.23;;;1.67;;
9102;SDS011;4587;51.434;6.788;2023-06-04T00:46:50;2.07;;;1.70;;
9102;SDS011;4587;51.434;6.788;2023-06-04T00:49:16;2.43;;;1.70;;
9102;SDS011;4587;51.434;6.788;2023-06-04T00:51:41;4.30;;;1.80;;
9102;SDS011;4587;51.434;6.788;2023-06-04T00:54:07;5.03;;;1.73;;
9102;SDS011;4587;51.434;6.788;2023-06-04T00:56:36;3.57;;;1.90;;
9102;SDS011;4587;51.434;6.788;2023-06-04T00:59:04;2.10;;;1.70;;
9102;SDS011;4587;51.434;6.788;2023-06-04T01:02:18;2.50;;;1.60;;
9102;SDS011;4587;51.434;6.788;2023-06-04T01:04:34;6.13;;;1.70;;
9102;SDS011;4587;51.434;6.788;2023-06-04T01:07:03;2.67;;;1.60;;
9102;SDS011;4587;51.434;6.788;2023-06-04T01:09:29;1.90;;;1.50;;
9102;SDS011;4587;51.434;6.788;2023-06-04T01:11:56;1.63;;;1.20;;
9102;SDS011;4587;51.434;6.788;2023-06-04T01:14:23;2.43;;;1.57;;
9102;SDS011;4587;51.434;6.788;2023-06-04T01:16:54;2.60;;;1.40;;
9102;SDS011;4587;51.434;6.788;2023-06-04T01:22:38;2.20;;;1.40;;
9102;SDS011;4587;51.434;6.788;2023-06-04T01:25:09;2.50;;;1.60;;
9102;SDS011;4587;51.434;6.788;2023-06-04T01:27:54;2.60;;;1.53;;
9102;SDS011;4587;51.434;6.788;2023-06-04T01:30:26;4.10;;;1.60;;
9102;SDS011;4587;51.434;6.788;2023-06-04T01:32:56;5.90;;;1.70;;
9102;SDS011;4587;51.434;6.788;2023-06-04T01:35:23;2.60;;;1.50;;
9102;SDS011;4587;51.434;6.788;2023-06-04T01:37:49;4.97;;;1.63;;
9102;SDS011;4587;51.434;6.788;2023-06-04T01:40:16;4.83;;;1.70;;
9102;SDS011;4587;51.434;6.788;2023-06-04T01:42:41;2.77;;;1.70;;
9102;SDS011;4587;51.434;6.788;2023-06-04T01:45:07;5.67;;;1.70;;
9102;SDS011;4587;51.434;6.788;2023-06-04T01:47:34;3.83;;;1.80;;
9102;SDS011;4587;51.434;6.788;2023-06-04T01:50:00;2.03;;;1.47;;
9102;SDS011;4587;51.434;6.788;2023-06-04T01:52:26;3.33;;;1.60;;
9102;SDS011;4587;51.434;6.788;2023-06-04T01:54:52;2.80;;;1.70;;
9102;SDS011;4587;51.434;6.788;2023-06-04T01:57:21;2.50;;;1.63;;
9102;SDS011;4587;51.434;6.788;2023-06-04T01:59:47;4.67;;;2.00;;
9102;SDS011;4587;51.434;6.788;2023-06-04T02:02:13;3.17;;;2.00;;
9102;SDS011;4587;51.434;6.788;2023-06-04T02:04:40;6.47;;;1.70;;
9102;SDS011;4587;51.434;6.788;2023-06-04T02:07:10;3.47;;;1.87;;
9102;SDS011;4587;51.434;6.788;2023-06-04T02:09:38;5.60;;;2.00;;
9102;SDS011;4587;51.434;6.788;2023-06-04T02:12:05;3.43;;;1.60;;
9102;SDS011;4587;51.434;6.788;2023-06-04T02:14:31;3.07;;;1.80;;
9102;SDS011;4587;51.434;6.788;2023-06-04T02:16:56;2.30;;;1.70;;
9102;SDS011;4587;51.434;6.788;2023-06-04T02:19:25;2.53;;;1.70;;
9102;SDS011;4587;51.434;6.788;2023-06-04T02:21:52;4.47;;;1.90;;
9102;SDS011;4587;51.434;6.788;2023-06-04T02:24:18;3.70;;;1.67;;
9102;SDS011;4587;51.434;6.788;2023-06-04T02:26:44;4.07;;;1.57;;
9102;SDS011;4587;51.434;6.788;2023-06-04T02:29:10;2.70;;;1.60;;
9102;SDS011;4587;51.434;6.788;2023-06-04T02:31:35;3.00;;;1.67;;
9102;SDS011;4587;51.434;6.788;2023-06-04T02:34:01;2.30;;;1.70;;
9102;SDS011;4587;51.434;6.788;2023-06-04T02:36:28;5.33;;;1.63;;
9102;SDS011;4587;51.434;6.788;2023-06-04T02:38:54;3.07;;;1.70;;
9102;SDS011;4587;51.434;6.788;2023-06-04T02:41:20;2.90;;;1.50;;
9102;SDS011;4587;51.434;6.788;2023-06-04T02:43:46;5.00;;;1.80;;
9102;SDS011;4587;51.434;6.788;2023-06-04T02:46:12;6.20;;;1.43;;
9102;SDS011;4587;51.434;6.788;2023-06-04T02:48:37;3.60;;;1.70;;
9102;SDS011;4587;51.434;6.788;2023-06-04T02:51:03;2.80;;;1.60;;
9102;SDS011;4587;51.434;6.788;2023-06-04T02:53:30;2.60;;;1.80;;
9102;SDS011;4587;51.434;6.788;2023-06-04T02:55:55;4.63;;;1.93;;
9102;SDS011;4587;51.434;6.788;2023-06-04T02:58:21;3.53;;;1.70;;
9102;SDS011;4587;51.434;6.788;2023-06-04T03:00:52;3.57;;;1.90;;
9102;SDS011;4587;51.434;6.788;2023-06-04T03:03:17;4.27;;;1.87;;
9102;SDS011;4587;51.434;6.788;2023-06-04T03:05:43;3.20;;;1.87;;
9102;SDS011;4587;51.434;6.788;2023-06-04T03:08:09;4.73;;;1.87;;
9102;SDS011;4587;51.434;6.788;2023-06-04T03:10:34;5.20;;;1.80;;
9102;SDS011;4587;51.434;6.788;2023-06-04T03:13:00;2.73;;;1.93;;
9102;SDS011;4587;51.434;6.788;2023-06-04T03:15:25;5.33;;;2.17;;
9102;SDS011;4587;51.434;6.788;2023-06-04T03:17:51;4.27;;;1.90;;
9102;SDS011;4587;51.434;6.788;2023-06-04T03:20:17;3.07;;;2.10;;
9102;SDS011;4587;51.434;6.788;2023-06-04T03:22:43;3.97;;;2.13;;
9102;SDS011;4587;51.434;6.788;2023-06-04T03:25:08;4.60;;;2.00;;
9102;SDS011;4587;51.434;6.788;2023-06-04T03:27:34;3.43;;;2.23;;
9102;SDS011;4587;51.434;6.788;2023-06-04T03:30:00;2.90;;;2.00;;
9102;SDS011;4587;51.434;6.788;2023-06-04T03:32:26;3.77;;;2.10;;
9102;SDS011;4587;51.434;6.788;2023-06-04T03:34:52;3.53;;;2.27;;
9102;SDS011;4587;51.434;6.788;2023-06-04T03:37:18;3.90;;;2.10;;
9102;SDS011;4587;51.434;6.788;2023-06-04T03:39:43;4.47;;;2.20;;
9102;SDS011;4587;51.434;6.788;2023-06-04T03:42:09;5.63;;;2.00;;
9102;SDS011;4587;51.434;6.788;2023-06-04T03:44:35;2.80;;;2.03;;
9102;SDS011;4587;51.434;6.788;2023-06-04T03:47:00;4.40;;;2.30;;
9102;SDS011;4587;51.434;6.788;2023-06-04T03:49:26;3.47;;;2.30;;
9102;SDS011;4587;51.434;6.788;2023-06-04T03:51:51;5.00;;;2.30;;
9102;SDS011;4587;51.434;6.788;2023-06-04T03:54:17;2.27;;;1.87;;
9102;SDS011;4587;51.434;6.788;2023-06-04T03:56:43;3.63;;;2.30;;
9102;SDS011;4587;51.434;6.788;2023-06-04T03:59:12;3.40;;;1.93;;
9102;SDS011;4587;51.434;6.788;2023-06-04T04:01:38;4.70;;;2.33;;
9102;SDS011;4587;51.434;6.788;2023-06-04T04:04:04;3.07;;;2.13;;
9102;SDS011;4587;51.434;6.788;2023-06-04T04:06:30;3.00;;;2.13;;
9102;SDS011;4587;51.434;6.788;2023-06-04T04:08:55;3.70;;;2.23;;
9102;SDS011;4587;51.434;6.788;2023-06-04T04:11:21;3.93;;;2.00;;
9102;SDS011;4587;51.434;6.788;2023-06-04T04:13:47;5.00;;;2.40;;
9102;SDS011;4587;51.434;6.788;2023-06-04T04:16:13;3.27;;;2.13;;
9102;SDS011;4587;51.434;6.788;2023-06-04T04:18:40;3.10;;;2.00;;
9102;SDS011;4587;51.434;6.788;2023-06-04T04:21:08;3.83;;;2.33;;
9102;SDS011;4587;51.434;6.788;2023-06-04T04:23:34;2.90;;;2.23;;
9102;SDS011;4587;51.434;6.788;2023-06-04T04:26:00;2.43;;;1.97;;
9102;SDS011;4587;51.434;6.788;2023-06-04T04:28:27;4.23;;;2.17;;
9102;SDS011;4587;51.434;6.788;2023-06-04T04:30:53;3.30;;;2.40;;
9102;SDS011;4587;51.434;6.788;2023-06-04T04:33:19;4.13;;;2.17;;
9102;SDS011;4587;51.434;6.788;2023-06-04T04:35:45;4.43;;;2.50;;
9102;SDS011;4587;51.434;6.788;2023-06-04T04:38:10;4.70;;;2.40;;
9102;SDS011;4587;51.434;6.788;2023-06-04T04:40:36;3.23;;;2.20;;
9102;SDS011;4587;51.434;6.788;2023-06-04T04:43:02;4.07;;;2.60;;
9102;SDS011;4587;51.434;6.788;2023-06-04T04:45:28;4.37;;;2.33;;
9102;SDS011;4587;51.434;6.788;2023-06-04T04:47:54;6.07;;;2.30;;
9102;SDS011;4587;51.434;6.788;2023-06-04T04:50:19;3.90;;;2.00;;
9102;SDS011;4587;51.434;6.788;2023-06-04T04:52:45;3.60;;;2.17;;
9102;SDS011;4587;51.434;6.788;2023-06-04T04:55:10;3.37;;;2.40;;
9102;SDS011;4587;51.434;6.788;2023-06-04T04:57:38;4.50;;;2.10;;
9102;SDS011;4587;51.434;6.788;2023-06-04T05:00:04;4.37;;;2.13;;
9102;SDS011;4587;51.434;6.788;2023-06-04T05:02:37;3.10;;;2.17;;
9102;SDS011;4587;51.434;6.788;2023-06-04T05:05:05;3.63;;;2.13;;
9102;SDS011;4587;51.434;6.788;2023-06-04T05:07:31;4.07;;;2.07;;
9102;SDS011;4587;51.434;6.788;2023-06-04T05:09:57;4.00;;;2.10;;
9102;SDS011;4587;51.434;6.788;2023-06-04T05:12:24;5.30;;;2.07;;
9102;SDS011;4587;51.434;6.788;2023-06-04T05:14:51;2.87;;;2.00;;
9102;SDS011;4587;51.434;6.788;2023-06-04T05:17:17;3.83;;;2.50;;
9102;SDS011;4587;51.434;6.788;2023-06-04T05:19:54;4.97;;;2.13;;
9102;SDS011;4587;51.434;6.788;2023-06-04T05:22:30;3.37;;;2.10;;
9102;SDS011;4587;51.434;6.788;2023-06-04T05:24:57;5.13;;;2.13;;
9102;SDS011;4587;51.434;6.788;2023-06-04T05:27:24;3.40;;;2.03;;
9102;SDS011;4587;51.434;6.788;2023-06-04T05:29:50;3.43;;;1.90;;
9102;SDS011;4587;51.434;6.788;2023-06-04T05:32:16;5.30;;;1.90;;
9102;SDS011;4587;51.434;6.788;2023-06-04T05:34:42;4.40;;;2.33;;
9102;SDS011;4587;51.434;6.788;2023-06-04T05:37:08;3.93;;;2.00;;
9102;SDS011;4587;51.434;6.788;2023-06-04T05:39:34;4.10;;;2.07;;
9102;SDS011;4587;51.434;6.788;2023-06-04T05:42:00;4.40;;;2.10;;
9102;SDS011;4587;51.434;6.788;2023-06-04T05:44:26;3.37;;;2.00;;
9102;SDS011;4587;51.434;6.788;2023-06-04T05:46:52;4.73;;;2.10;;
9102;SDS011;4587;51.434;6.788;2023-06-04T05:49:17;2.90;;;1.80;;
9102;SDS011;4587;51.434;6.788;2023-06-04T05:51:44;5.73;;;1.90;;
9102;SDS011;4587;51.434;6.788;2023-06-04T05:54:10;3.57;;;2.00;;
9102;SDS011;4587;51.434;6.788;2023-06-04T05:56:35;2.73;;;2.20;;
9102;SDS011;4587;51.434;6.788;2023-06-04T05:59:01;3.90;;;2.20;;
9102;SDS011;4587;51.434;6.788;2023-06-04T06:01:27;2.60;;;2.00;;
9102;SDS011;4587;51.434;6.788;2023-06-04T06:03:53;2.80;;;1.87;;
9102;SDS011;4587;51.434;6.788;2023-06-04T06:06:19;3.53;;;2.13;;
9102;SDS011;4587;51.434;6.788;2023-06-04T06:08:45;3.60;;;1.97;;
9102;SDS011;4587;51.434;6.788;2023-06-04T06:11:11;2.90;;;2.07;;
9102;SDS011;4587;51.434;6.788;2023-06-04T06:13:37;4.70;;;2.00;;
9102;SDS011;4587;51.434;6.788;2023-06-04T06:16:02;3.57;;;2.27;;
9102;SDS011;4587;51.434;6.788;2023-06-04T06:18:29;4.77;;;2.40;;
9102;SDS011;4587;51.434;6.788;2023-06-04T06:20:55;3.10;;;2.10;;
9102;SDS011;4587;51.434;6.788;2023-06-04T06:23:21;2.83;;;2.00;;
9102;SDS011;4587;51.434;6.788;2023-06-04T06:25:48;3.93;;;1.93;;
9102;SDS011;4587;51.434;6.788;2023-06-04T06:28:16;3.70;;;2.00;;
9102;SDS011;4587;51.434;6.788;2023-06-04T06:30:41;3.70;;;2.00;;
9102;SDS011;4587;51.434;6.788;2023-06-04T06:33:07;3.30;;;1.90;;
9102;SDS011;4587;51.434;6.788;2023-06-04T06:35:33;4.70;;;2.10;;
9102;SDS011;4587;51.434;6.788;2023-06-04T06:37:58;3.13;;;1.83;;
9102;SDS011;4587;51.434;6.788;2023-06-04T06:40:24;3.70;;;1.90;;
9102;SDS011;4587;51.434;6.788;2023-06-04T06:42:50;4.47;;;1.90;;
9102;SDS011;4587;51.434;6.788;2023-06-04T06:45:16;4.10;;;2.00;;
9102;SDS011;4587;51.434;6.788;2023-06-04T06:47:45;4.17;;;1.77;;
9102;SDS011;4587;51.434;6.788;2023-06-04T06:50:11;3.65;;;1.80;;
9102;SDS011;4587;51.434;6.788;2023-06-04T06:52:36;4.32;;;2.17;;
9102;SDS011;4587;51.434;6.788;2023-06-04T06:55:03;2.53;;;2.00;;
9102;SDS011;4587;51.434;6.788;2023-06-04T06:57:29;3.13;;;1.95;;
9102;SDS011;4587;51.434;6.788;2023-06-04T06:59:55;4.00;;;1.85;;
9102;SDS011;4587;51.434;6.788;2023-06-04T07:02:21;3.75;;;1.63;;
9102;SDS011;4587;51.434;6.788;2023-06-04T07:04:46;2.58;;;1.63;;
9102;SDS011;4587;51.434;6.788;2023-06-04T07:07:12;4.80;;;1.75;;
9102;SDS011;4587;51.434;6.788;2023-06-04T07:09:38;3.20;;;2.00;;
9102;SDS011;4587;51.434;6.788;2023-06-04T07:12:03;5.38;;;1.80;;
9102;SDS011;4587;51.434;6.788;2023-06-04T07:14:29;3.50;;;1.80;;
9102;SDS011;4587;51.434;6.788;2023-06-04T07:16:55;3.47;;;1.80;;
9102;SDS011;4587;51.434;6.788;2023-06-04T07:19:20;4.97;;;1.60;;
9102;SDS011;4587;51.434;6.788;2023-06-04T07:21:46;4.80;;;1.85;;
9102;SDS011;4587;51.434;6.788;2023-06-04T07:24:11;2.58;;;1.88;;
9102;SDS011;4587;51.434;6.788;2023-06-04T07:26:37;5.75;;;1.90;;
9102;SDS011;4587;51.434;6.788;2023-06-04T07:29:03;3.17;;;1.60;;
9102;SDS011;4587;51.434;6.788;2023-06-04T07:31:28;4.65;;;1.90;;
9102;SDS011;4587;51.434;6.788;2023-06-04T07:33:54;2.08;;;1.80;;
9102;SDS011;4587;51.434;6.788;2023-06-04T07:36:20;2.33;;;1.83;;
9102;SDS011;4587;51.434;6.788;2023-06-04T07:38:45;2.97;;;1.70;;
9102;SDS011;4587;51.434;6.788;2023-06-04T07:41:11;3.78;;;1.60;;
9102;SDS011;4587;51.434;6.788;2023-06-04T07:43:37;3.17;;;2.10;;
9102;SDS011;4587;51.434;6.788;2023-06-04T07:46:03;4.35;;;2.72;;
9102;SDS011;4587;51.434;6.788;2023-06-04T07:48:29;3.20;;;2.22;;
9102;SDS011;4587;51.434;6.788;2023-06-04T07:50:57;1.50;;;1.40;;
9102;SDS011;4587;51.434;6.788;2023-06-04T07:53:23;3.63;;;1.73;;
9102;SDS011;4587;51.434;6.788;2023-06-04T07:55:49;2.30;;;1.33;;
9102;SDS011;4587;51.434;6.788;2023-06-04T07:58:14;2.55;;;1.52;;
9102;SDS011;4587;51.434;6.788;2023-06-04T08:00:40;2.45;;;1.45;;
9102;SDS011;4587;51.434;6.788;2023-06-04T08:03:06;3.22;;;1.70;;
9102;SDS011;4587;51.434;6.788;2023-06-04T08:05:32;1.70;;;1.50;;
9102;SDS011;4587;51.434;6.788;2023-06-04T08:07:58;2.50;;;1.50;;
9102;SDS011;4587;51.434;6.788;2023-06-04T08:10:24;2.53;;;1.52;;
9102;SDS011;4587;51.434;6.788;2023-06-04T08:12:50;1.90;;;1.33;;
9102;SDS011;4587;51.434;6.788;2023-06-04T08:15:15;2.78;;;1.50;;
9102;SDS011;4587;51.434;6.788;2023-06-04T08:17:41;3.95;;;1.80;;
9102;SDS011;4587;51.434;6.788;2023-06-04T08:20:07;3.50;;;1.80;;
9102;SDS011;4587;51.434;6.788;2023-06-04T08:22:34;3.20;;;1.73;;
9102;SDS011;4587;51.434;6.788;2023-06-04T08:24:59;6.32;;;1.80;;
9102;SDS011;4587;51.434;6.788;2023-06-04T08:27:25;2.97;;;2.00;;
9102;SDS011;4587;51.434;6.788;2023-06-04T08:29:51;5.47;;;2.40;;
9102;SDS011;4587;51.434;6.788;2023-06-04T08:32:17;5.15;;;1.67;;
9102;SDS011;4587;51.434;6.788;2023-06-04T08:34:43;3.15;;;1.70;;
9102;SDS011;4587;51.434;6.788;2023-06-04T08:37:09;4.22;;;1.75;;
9102;SDS011;4587;51.434;6.788;2023-06-04T08:39:35;2.38;;;1.52;;
9102;SDS011;4587;51.434;6.788;2023-06-04T08:42:01;3.92;;;2.78;;
9102;SDS011;4587;51.434;6.788;2023-06-04T08:44:32;4.28;;;1.88;;
9102;SDS011;4587;51.434;6.788;2023-06-04T08:47:07;4.25;;;1.90;;
9102;SDS011;4587;51.434;6.788;2023-06-04T08:49:34;7.32;;;1.98;;
9102;SDS011;4587;51.434;6.788;2023-06-04T08:52:04;4.07;;;2.58;;
9102;SDS011;4587;51.434;6.788;2023-06-04T08:54:31;4.03;;;3.22;;
9102;SDS011;4587;51.434;6.788;2023-06-04T08:56:57;3.05;;;1.90;;
9102;SDS011;4587;51.434;6.788;2023-06-04T08:59:23;4.63;;;2.10;;
9102;SDS011;4587;51.434;6.788;2023-06-04T09:01:51;3.40;;;1.70;;
9102;SDS011;4587;51.434;6.788;2023-06-04T09:04:19;3.83;;;1.48;;
9102;SDS011;4587;51.434;6.788;2023-06-04T09:06:45;3.53;;;1.63;;
9102;SDS011;4587;51.434;6.788;2023-06-04T09:09:12;3.35;;;1.70;;
9102;SDS011;4587;51.434;6.788;2023-06-04T09:14:15;3.63;;;1.40;;
9102;SDS011;4587;51.434;6.788;2023-06-04T09:16:45;5.75;;;1.58;;
9102;SDS011;4587;51.434;6.788;2023-06-04T09:19:11;5.03;;;1.70;;
9102;SDS011;4587;51.434;6.788;2023-06-04T09:21:47;2.67;;;1.90;;
9102;SDS011;4587;51.434;6.788;2023-06-04T09:24:23;6.20;;;1.97;;
9102;SDS011;4587;51.434;6.788;2023-06-04T09:27:15;3.53;;;1.38;;
9102;SDS011;4587;51.434;6.788;2023-06-04T09:32:21;4.13;;;1.55;;
9102;SDS011;4587;51.434;6.788;2023-06-04T09:34:46;2.47;;;1.70;;
9102;SDS011;4587;51.434;6.788;2023-06-04T09:37:15;3.92;;;1.80;;
9102;SDS011;4587;51.434;6.788;2023-06-04T09:39:52;4.90;;;1.93;;
9102;SDS011;4587;51.434;6.788;2023-06-04T09:42:23;4.60;;;2.00;;
9102;SDS011;4587;51.434;6.788;2023-06-04T09:44:49;5.80;;;2.13;;
9102;SDS011;4587;51.434;6.788;2023-06-04T09:47:15;4.27;;;1.77;;
9102;SDS011;4587;51.434;6.788;2023-06-04T09:49:44;5.93;;;1.67;;
9102;SDS011;4587;51.434;6.788;2023-06-04T09:52:11;2.20;;;1.50;;
9102;SDS011;4587;51.434;6.788;2023-06-04T09:54:38;4.27;;;1.67;;
9102;SDS011;4587;51.434;6.788;2023-06-04T09:57:16;2.07;;;1.33;;
9102;SDS011;4587;51.434;6.788;2023-06-04T09:59:43;4.22;;;1.50;;
9102;SDS011;4587;51.434;6.788;2023-06-04T10:02:13;2.60;;;1.63;;
9102;SDS011;4587;51.434;6.788;2023-06-04T10:04:53;3.13;;;1.70;;
9102;SDS011;4587;51.434;6.788;2023-06-04T10:07:22;3.20;;;1.60;;
9102;SDS011;4587;51.434;6.788;2023-06-04T10:09:49;3.45;;;1.70;;
9102;SDS011;4587;51.434;6.788;2023-06-04T10:12:16;2.28;;;1.63;;
9102;SDS011;4587;51.434;6.788;2023-06-04T10:14:54;2.58;;;1.55;;
9102;SDS011;4587;51.434;6.788;2023-06-04T10:17:23;6.77;;;1.90;;
9102;SDS011;4587;51.434;6.788;2023-06-04T10:19:53;3.37;;;1.70;;
9102;SDS011;4587;51.434;6.788;2023-06-04T10:22:20;4.00;;;1.83;;
9102;SDS011;4587;51.434;6.788;2023-06-04T10:24:46;4.05;;;1.88;;
9102;SDS011;4587;51.434;6.788;2023-06-04T10:27:12;2.40;;;2.10;;
9102;SDS011;4587;51.434;6.788;2023-06-04T10:29:38;2.15;;;1.77;;
9102;SDS011;4587;51.434;6.788;2023-06-04T10:32:04;2.00;;;1.80;;
9102;SDS011;4587;51.434;6.788;2023-06-04T10:34:31;4.95;;;1.85;;
9102;SDS011;4587;51.434;6.788;2023-06-04T10:36:57;2.47;;;1.73;;
9102;SDS011;4587;51.434;6.788;2023-06-04T10:39:26;2.28;;;1.60;;
9102;SDS011;4587;51.434;6.788;2023-06-04T10:42:03;6.15;;;1.90;;
9102;SDS011;4587;51.434;6.788;2023-06-04T10:44:30;3.92;;;1.80;;
9102;SDS011;4587;51.434;6.788;2023-06-04T10:46:57;2.03;;;1.50;;
9102;SDS011;4587;51.434;6.788;2023-06-04T10:49:27;2.70;;;1.60;;
9102;SDS011;4587;51.434;6.788;2023-06-04T10:51:54;3.63;;;1.70;;
9102;SDS011;4587;51.434;6.788;2023-06-04T10:54:28;3.78;;;1.80;;
9102;SDS011;4587;51.434;6.788;2023-06-04T10:56:54;3.93;;;1.63;;
9102;SDS011;4587;51.434;6.788;2023-06-04T10:59:20;2.83;;;1.70;;
9102;SDS011;4587;51.434;6.788;2023-06-04T11:01:46;4.00;;;1.98;;
9102;SDS011;4587;51.434;6.788;2023-06-04T11:04:45;4.20;;;1.80;;
9102;SDS011;4587;51.434;6.788;2023-06-04T11:07:06;2.80;;;1.77;;
9102;SDS011;4587;51.434;6.788;2023-06-04T11:09:35;3.10;;;1.85;;
9102;SDS011;4587;51.434;6.788;2023-06-04T11:12:02;3.17;;;2.17;;
9102;SDS011;4587;51.434;6.788;2023-06-04T11:14:29;5.20;;;2.07;;
9102;SDS011;4587;51.434;6.788;2023-06-04T11:16:55;3.03;;;2.20;;
9102;SDS011;4587;51.434;6.788;2023-06-04T11:19:20;4.63;;;1.88;;
9102;SDS011;4587;51.434;6.788;2023-06-04T11:21:46;4.10;;;1.90;;
9102;SDS011;4587;51.434;6.788;2023-06-04T11:24:12;3.45;;;1.92;;
9102;SDS011;4587;51.434;6.788;2023-06-04T11:26:38;3.90;;;2.20;;
9102;SDS011;4587;51.434;6.788;2023-06-04T11:29:11;3.30;;;2.10;;
9102;SDS011;4587;51.434;6.788;2023-06-04T11:31:46;6.73;;;2.10;;
9102;SDS011;4587;51.434;6.788;2023-06-04T11:34:22;6.13;;;2.10;;
9102;SDS011;4587;51.434;6.788;2023-06-04T11:36:48;3.20;;;2.20;;
9102;SDS011;4587;51.434;6.788;2023-06-04T11:39:20;5.93;;;2.30;;
9102;SDS011;4587;51.434;6.788;2023-06-04T11:41:47;2.10;;;1.83;;
9102;SDS011;4587;51.434;6.788;2023-06-04T11:44:13;3.20;;;1.83;;
9102;SDS011;4587;51.434;6.788;2023-06-04T11:46:40;4.90;;;2.22;;
9102;SDS011;4587;51.434;6.788;2023-06-04T11:49:06;3.70;;;2.23;;
9102;SDS011;4587;51.434;6.788;2023-06-04T11:51:32;4.07;;;2.20;;
9102;SDS011;4587;51.434;6.788;2023-06-04T11:53:58;3.63;;;2.07;;
9102;SDS011;4587;51.434;6.788;2023-06-04T11:56:24;4.27;;;2.00;;
9102;SDS011;4587;51.434;6.788;2023-06-04T11:58:51;2.13;;;1.80;;
9102;SDS011;4587;51.434;6.788;2023-06-04T12:01:19;6.20;;;2.20;;
9102;SDS011;4587;51.434;6.788;2023-06-04T12:03:45;3.25;;;1.95;;
9102;SDS011;4587;51.434;6.788;2023-06-04T12:06:11;5.00;;;2.07;;
9102;SDS011;4587;51.434;6.788;2023-06-04T12:08:52;3.72;;;1.98;;
9102;SDS011;4587;51.434;6.788;2023-06-04T12:11:23;2.90;;;1.90;;
9102;SDS011;4587;51.434;6.788;2023-06-04T12:13:55;3.25;;;2.00;;
9102;SDS011;4587;51.434;6.788;2023-06-04T12:16:21;2.90;;;2.00;;
9102;SDS011;4587;51.434;6.788;2023-06-04T12:18:47;3.77;;;1.87;;
9102;SDS011;4587;51.434;6.788;2023-06-04T12:23:51;4.30;;;2.00;;
9102;SDS011;4587;51.434;6.788;2023-06-04T12:26:33;2.00;;;1.80;;
9102;SDS011;4587;51.434;6.788;2023-06-04T12:29:02;2.90;;;1.87;;
9102;SDS011;4587;51.434;6.788;2023-06-04T12:31:36;3.27;;;2.10;;
9102;SDS011;4587;51.434;6.788;2023-06-04T12:34:03;5.23;;;1.87;;
9102;SDS011;4587;51.434;6.788;2023-06-04T12:36:29;3.43;;;2.00;;
9102;SDS011;4587;51.434;6.788;2023-06-04T12:38:57;4.17;;;1.83;;
9102;SDS011;4587;51.434;6.788;2023-06-04T12:41:25;2.87;;;2.00;;
9102;SDS011;4587;51.434;6.788;2023-06-04T12:43:51;3.63;;;1.90;;
9102;SDS011;4587;51.434;6.788;2023-06-04T12:46:17;6.63;;;2.20;;
9102;SDS011;4587;51.434;6.788;2023-06-04T12:48:42;3.83;;;2.03;;
9102;SDS011;4587;51.434;6.788;2023-06-04T12:51:08;3.20;;;2.33;;
9102;SDS011;4587;51.434;6.788;2023-06-04T12:53:38;3.70;;;2.10;;
9102;SDS011;4587;51.434;6.788;2023-06-04T12:56:04;3.13;;;2.13;;
9102;SDS011;4587;51.434;6.788;2023-06-04T12:58:30;5.28;;;2.58;;
9102;SDS011;4587;51.434;6.788;2023-06-04T13:00:56;5.70;;;2.30;;
9102;SDS011;4587;51.434;6.788;2023-06-04T13:03:22;3.33;;;2.50;;
9102;SDS011;4587;51.434;6.788;2023-06-04T13:05:47;3.60;;;2.70;;
9102;SDS011;4587;51.434;6.788;2023-06-04T13:08:13;3.05;;;2.38;;
9102;SDS011;4587;51.434;6.788;2023-06-04T13:10:40;7.13;;;2.22;;
9102;SDS011;4587;51.434;6.788;2023-06-04T13:13:05;3.00;;;2.15;;
9102;SDS011;4587;51.434;6.788;2023-06-04T13:15:31;4.40;;;2.30;;
9102;SDS011;4587;51.434;6.788;2023-06-04T13:17:56;3.17;;;2.30;;
9102;SDS011;4587;51.434;6.788;2023-06-04T13:20:22;2.58;;;2.35;;
9102;SDS011;4587;51.434;6.788;2023-06-04T13:22:48;4.30;;;2.20;;
9102;SDS011;4587;51.434;6.788;2023-06-04T13:25:13;4.23;;;2.33;;
9102;SDS011;4587;51.434;6.788;2023-06-04T13:27:39;3.17;;;2.30;;
9102;SDS011;4587;51.434;6.788;2023-06-04T13:30:05;5.35;;;2.28;;
9102;SDS011;4587;51.434;6.788;2023-06-04T13:32:31;3.53;;;2.10;;
9102;SDS011;4587;51.434;6.788;2023-06-04T13:34:57;3.50;;;2.20;;
9102;SDS011;4587;51.434;6.788;2023-06-04T13:37:22;2.75;;;2.55;;
9102;SDS011;4587;51.434;6.788;2023-06-04T13:39:48;4.87;;;2.30;;
9102;SDS011;4587;51.434;6.788;2023-06-04T13:42:13;5.22;;;2.70;;
9102;SDS011;4587;51.434;6.788;2023-06-04T13:44:39;2.40;;;2.20;;
9102;SDS011;4587;51.434;6.788;2023-06-04T13:47:04;6.93;;;2.67;;
9102;SDS011;4587;51.434;6.788;2023-06-04T13:49:33;6.03;;;3.30;;
9102;SDS011;4587;51.434;6.788;2023-06-04T13:51:59;3.95;;;2.25;;
9102;SDS011;4587;51.434;6.788;2023-06-04T13:54:25;4.20;;;2.00;;
9102;SDS011;4587;51.434;6.788;2023-06-04T13:56:51;3.08;;;2.10;;
9102;SDS011;4587;51.434;6.788;2023-06-04T13:59:17;2.83;;;2.20;;
9102;SDS011;4587;51.434;6.788;2023-06-04T14:01:42;2.88;;;2.25;;
9102;SDS011;4587;51.434;6.788;2023-06-04T14:04:08;5.82;;;2.45;;
9102;SDS011;4587;51.434;6.788;2023-06-04T14:06:37;2.47;;;2.22;;
9102;SDS011;4587;51.434;6.788;2023-06-04T14:09:03;2.90;;;2.22;;
9102;SDS011;4587;51.434;6.788;2023-06-04T14:11:30;7.28;;;2.17;;
9102;SDS011;4587;51.434;6.788;2023-06-04T14:13:57;2.20;;;2.00;;
9102;SDS011;4587;51.434;6.788;2023-06-04T14:16:23;4.80;;;2.20;;
9102;SDS011;4587;51.434;6.788;2023-06-04T14:18:48;4.22;;;2.08;;
9102;SDS011;4587;51.434;6.788;2023-06-04T14:21:14;4.18;;;2.33;;
9102;SDS011;4587;51.434;6.788;2023-06-04T14:23:39;5.28;;;2.53;;
9102;SDS011;4587;51.434;6.788;2023-06-04T14:26:06;2.85;;;2.00;;
9102;SDS011;4587;51.434;6.788;2023-06-04T14:28:31;3.07;;;2.00;;
9102;SDS011;4587;51.434;6.788;2023-06-04T14:30:57;2.35;;;2.10;;
9102;SDS011;4587;51.434;6.788;2023-06-04T14:33:23;2.95;;;1.85;;
9102;SDS011;4587;51.434;6.788;2023-06-04T14:35:49;2.83;;;2.37;;
9102;SDS011;4587;51.434;6.788;2023-06-04T14:38:14;5.82;;;2.40;;
9102;SDS011;4587;51.434;6.788;2023-06-04T14:40:41;4.20;;;2.27;;
9102;SDS011;4587;51.434;6.788;2023-06-04T14:43:08;5.47;;;2.00;;
9102;SDS011;4587;51.434;6.788;2023-06-04T14:45:37;2.70;;;1.83;;
9102;SDS011;4587;51.434;6.788;2023-06-04T14:48:04;3.38;;;1.98;;
9102;SDS011;4587;51.434;6.788;2023-06-04T14:50:30;3.72;;;2.40;;
9102;SDS011;4587;51.434;6.788;2023-06-04T14:52:56;2.80;;;2.10;;
9102;SDS011;4587;51.434;6.788;2023-06-04T14:55:21;2.78;;;1.80;;
9102;SDS011;4587;51.434;6.788;2023-06-04T14:57:49;4.22;;;2.08;;
9102;SDS011;4587;51.434;6.788;2023-06-04T15:00:15;4.53;;;2.25;;
9102;SDS011;4587;51.434;6.788;2023-06-04T15:02:41;6.40;;;2.00;;
9102;SDS011;4587;51.434;6.788;2023-06-04T15:05:07;4.28;;;2.20;;
9102;SDS011;4587;51.434;6.788;2023-06-04T15:07:32;3.45;;;2.05;;
9102;SDS011;4587;51.434;6.788;2023-06-04T15:09:58;2.42;;;2.15;;
9102;SDS011;4587;51.434;6.788;2023-06-04T15:12:24;6.07;;;2.03;;
9102;SDS011;4587;51.434;6.788;2023-06-04T15:14:50;2.30;;;1.73;;
9102;SDS011;4587;51.434;6.788;2023-06-04T15:17:15;2.50;;;2.00;;
9102;SDS011;4587;51.434;6.788;2023-06-04T15:19:41;3.38;;;1.90;;
9102;SDS011;4587;51.434;6.788;2023-06-04T15:22:06;2.00;;;1.77;;
9102;SDS011;4587;51.434;6.788;2023-06-04T15:24:32;6.03;;;2.20;;